• Join FlightAware (Why Join?)
  • Login
  • US Flag 
11:08PM EDT


 

Airport Tracker/Info


-or-


 

Live Flight TrackerFlight Track Log ✈ SWA414 ✈ 13-May-2013 ✈ KMDW - KTUL

Flight Track Log - Related Links

Times and Time Zones

All times are in EDT time to prevent confusion due to time zone crossing. See the SWA414 flight status page for this flight to view local times or setup timezone preferences in your user account.

Time Position Orientation Groundspeed Altitude Reporting Facility
EDT Latitude Longitude Course Direction KTS MPH feet Rate Location/Type
06:48PM 41.8000 -87.7333 124° Southeast 145 167 1,600  Level Chicago TRACON
06:49PM 41.7667 -87.6667 124° Southeast 217 250 3,700 1,140 Climbing Chicago TRACON
06:51PM 41.6539 -87.7011 193° South 252 290 5,200 780 Climbing Chicago Center
06:52PM 41.6117 -87.7750 233° Southwest 253 291 6,200 2,160 Climbing Chicago Center
06:53PM 41.5711 -87.8533 235° Southwest 255 293 9,700 2,220 Climbing Chicago Center
06:54PM 41.5256 -87.9411 235° Southwest 283 326 10,900 840 Climbing Chicago Center
06:55PM 41.4708 -88.0439 235° Southwest 288 331 11,500 780 Climbing Chicago Center
06:56PM 41.4272 -88.1300 236° Southwest 297 342 12,600 2,280 Climbing Chicago Center
06:57PM 41.3533 -88.2036 217° Southwest 354 407 16,200 3,660 Climbing Chicago Center
06:58PM 41.2319 -88.2578 199° South 388 447 20,200 3,300 Climbing Chicago Center
06:59PM 41.1244 -88.3075 199° South 403 464 23,100 2,640 Climbing Chicago Center
07:00PM 41.0111 -88.3589 199° South 427 491 25,700 2,400 Climbing Chicago Center
07:01PM 40.8931 -88.4103 198° South 446 513 28,200 2,160 Climbing Chicago Center
07:02PM 40.7717 -88.4642 199° South 459 528 30,200 1,920 Climbing Chicago Center
07:03PM 40.6317 -88.5589 207° Southwest 470 541 32,200 1,800 Climbing Chicago Center
07:04PM 40.5314 -88.6725 221° Southwest 476 548 34,000 1,680 Climbing Chicago Center
07:05PM 40.4267 -88.7894 220° Southwest 484 557 35,700 1,500 Climbing Chicago Center
07:06PM 40.3217 -88.9047 220° Southwest 488 562 37,200 1,500 Climbing Chicago Center
07:07PM 40.2158 -89.0225 220° Southwest 493 567 38,800 1,320 Climbing Chicago Center
07:08PM 40.1103 -89.1428 221° Southwest 498 573 40,000 600 Climbing Chicago Center
07:09PM 40.0231 -89.2353 219° Southwest 496 571 40,000  Level Kansas City Center
07:10PM 39.8944 -89.3739 220° Southwest 496 571 40,000  Level Kansas City Center
07:11PM 39.7889 -89.4889 220° Southwest 496 571 40,000  Level Kansas City Center
07:12PM 39.6853 -89.6028 220° Southwest 493 567 40,000  Level Kansas City Center
07:13PM 39.5803 -89.7133 219° Southwest 489 563 40,000  Level Kansas City Center
07:14PM 39.4758 -89.8281 220° Southwest 492 566 40,000  Level Kansas City Center
07:15PM 39.3708 -89.9414 220° Southwest 492 566 40,000  Level Kansas City Center
07:16PM 39.2789 -90.1058 234° Southwest 476 548 40,000  Level Kansas City Center
07:17PM 39.2114 -90.2492 239° Southwest 472 543 40,000  Level Kansas City Center
07:18PM 39.1442 -90.3922 239° Southwest 471 542 40,000  Level Kansas City Center
07:19PM 39.0761 -90.5347 238° Southwest 472 543 40,000  Level Kansas City Center
07:21PM 39.0089 -90.6767 239° Southwest 471 542 40,000  Level Kansas City Center
07:22PM 38.9283 -90.8442 238° Southwest 469 540 40,000  Level Kansas City Center
07:23PM 38.8594 -90.9858 238° Southwest 471 542 40,000  Level Kansas City Center
07:24PM 38.7914 -91.1278 238° Southwest 472 543 40,000  Level Kansas City Center
07:25PM 38.7231 -91.2694 238° Southwest 471 542 40,000  Level Kansas City Center
07:26PM 38.6453 -91.4281 238° Southwest 473 544 40,000  Level Kansas City Center
07:27PM 38.5756 -91.5703 238° Southwest 472 543 40,000  Level Kansas City Center
07:28PM 38.5036 -91.7125 237° Southwest 474 545 40,000  Level Kansas City Center
07:29PM 38.4336 -91.8544 238° Southwest 474 545 40,000  Level Kansas City Center
07:30PM 38.3475 -92.0247 237° Southwest 475 547 40,000  Level Kansas City Center
07:31PM 38.2764 -92.1656 237° Southwest 475 547 40,000  Level Kansas City Center
07:32PM 38.2064 -92.3050 237° Southwest 466 536 40,000  Level Kansas City Center
07:33PM 38.1300 -92.4606 238° Southwest 483 556 40,000  Level Kansas City Center
07:34PM 38.0583 -92.6025 237° Southwest 483 556 40,000  Level Kansas City Center
07:35PM 37.9786 -92.7542 236° Southwest 480 552 40,000  Level Kansas City Center
07:36PM 37.9061 -92.8944 237° Southwest 478 550 40,000  Level Kansas City Center
07:37PM 37.8331 -93.0350 237° Southwest 479 551 40,000  Level Kansas City Center
07:38PM 37.7606 -93.1731 236° Southwest 472 543 40,000  Level Kansas City Center
07:39PM 37.6886 -93.3133 237° Southwest 474 545 40,000  Level Kansas City Center
07:40PM 37.6011 -93.4792 236° Southwest 473 544 40,000 -480 Level Kansas City Center
07:41PM 37.5292 -93.6169 237° Southwest 472 543 39,100 -1,500 Descending Kansas City Center
07:42PM 37.4586 -93.7511 237° Southwest 463 533 37,000 -1,200 Descending Kansas City Center
07:43PM 37.3875 -93.8844 236° Southwest 460 529 36,700 -1,380 Descending Kansas City Center
07:44PM 37.3181 -94.0181 237° Southwest 458 527 34,200 -2,700 Descending Kansas City Center
07:45PM 37.2467 -94.1514 236° Southwest 455 524 31,200 -2,700 Descending Kansas City Center
07:46PM 37.1775 -94.2817 236° Southwest 450 518 28,700 -2,460 Descending Kansas City Center
07:47PM 37.1103 -94.4056 236° Southwest 434 499 26,200 -2,580 Descending Kansas City Center
07:48PM 37.0339 -94.5475 236° Southwest 414 476 23,400 -2,520 Descending Kansas City Center
07:49PM 36.9725 -94.6611 236° Southwest 398 458 21,100 -2,160 Descending Kansas City Center
07:50PM 36.9142 -94.7675 236° Southwest 378 435 19,000 -2,040 Descending Kansas City Center
07:52PM 36.8581 -94.8708 236° Southwest 364 419 16,900 -2,100 Descending Kansas City Center
07:53PM 36.8033 -94.9719 236° Southwest 356 410 14,700 -2,100 Descending Kansas City Center
07:54PM 36.7492 -95.0700 235° Southwest 349 402 12,600 -2,340 Descending Kansas City Center
07:54PM 36.7161 -95.1328 237° Southwest 333 383 11,200 -2,280 Descending Kansas City Center
07:55PM 36.6875 -95.1825 234° Southwest 332 382 10,300 -1,320 Descending Kansas City Center
07:55PM 36.6656 -95.2233 236° Southwest 319 367 9,900 -1,080 Descending Kansas City Center
07:56PM 36.6339 -95.2633 225° Southwest 309 356 9,200 -1,320 Descending Kansas City Center
07:56PM 36.6033 -95.2997 224° Southwest 290 334 8,500 -1,380 Descending Kansas City Center
07:57PM 36.5753 -95.3331 224° Southwest 295 339 7,800 -1,500 Descending Kansas City Center
07:57PM 36.5425 -95.3731 224° Southwest 280 322 7,000 -1,500 Descending Kansas City Center
07:58PM 36.5208 -95.3994 224° Southwest 282 325 6,300 -1,020 Descending Kansas City Center
07:58PM 36.4878 -95.4406 225° Southwest 274 315 6,000 -300 Descending Kansas City Center
07:59PM 36.4669 -95.4647 223° Southwest 278 320 6,000  Level Kansas City Center
07:59PM 36.4328 -95.5050 223° Southwest 274 315 6,000  Level Kansas City Center
08:00PM 36.4028 -95.5419 225° Southwest 276 318 6,000 -540 Level Kansas City Center
08:00PM 36.3778 -95.5722 224° Southwest 276 318 5,500 -1,080 Descending Kansas City Center
08:01PM 36.3475 -95.6050 221° Southwest 274 315 4,900 -1,200 Descending Kansas City Center
08:01PM 36.3244 -95.6339 225° Southwest 267 307 4,300 -1,020 Descending Kansas City Center
08:02PM 36.2961 -95.6664 223° Southwest 267 307 3,900 -1,200 Descending Kansas City Center
08:02PM 36.2769 -95.6919 227° Southwest 233 268 3,100 -1,380 Descending Kansas City Center
08:03PM 36.2536 -95.7172 221° Southwest 234 269 2,500 -720 Descending Kansas City Center
08:03PM 36.2392 -95.7386 230° Southwest 170 196 2,400 -540 Descending Kansas City Center
08:04PM 36.2228 -95.7581 224° Southwest 193 222 2,000 -420 Descending Kansas City Center
08:04PM 36.2089 -95.7786 230° Southwest 145 167 2,000 -300 Level Kansas City Center
08:05PM 36.1961 -95.7981 231° Southwest 169 194 1,700 -600 Descending Kansas City Center
08:05PM 36.1961 -95.8244 270° West 131 151 1,400 -720 Descending Kansas City Center
08:06PM 36.1953 -95.8533 268° West 145 167 1,000 -420 Descending Kansas City Center
08:07PM 36.1939 -95.8953 268° West 141 162 700 -300 Descending Kansas City Center